Flight Track Log - Related Links

Times and Time Zones

All times are in EDT time to prevent confusion due to time zone crossing. See the N137TK flight status page for this flight to view local times or setup timezone preferences in your user account.

Time Position Orientation Groundspeed Altitude Reporting Facility
EDT Latitude Longitude Course Direction KTS MPH feet Rate Location/Type
Fri 02:15:20 PM 26.1078 -81.9186 261° West 178 205 5,500  Level Miami Center
Fri 02:16:20 PM 26.1036 -81.9739 265° West 178 205 7,400 1,850 Climbing Miami Center
Fri 02:17:20 PM 26.1039 -82.0294 270° West 178 205 9,200 1,700 Climbing Miami Center
Fri 02:18:00 PM 26.3191 -82.0981 297° West  Level Estimated
Fri 02:18:20 PM 26.1269 -82.0811 296° West 178 205 10,800  Level Miami Center
Fri 02:19:00 PM 26.3081 -82.1715 261° West  Level FlightAware Approximate
Fri 02:19:20 PM 26.1500 -82.1353 295° West 197 227 12,200  Level Miami Center
Fri 02:20:20 PM 26.1775 -82.1897 299° West 197 227 13,300 1,200 Climbing Miami Center
Fri 02:21:20 PM 26.2025 -82.2464 296° West 202 232 14,600 1,250 Climbing Miami Center
Fri 02:22:20 PM 26.2275 -82.3031 296° West 202 232 15,800 1,300 Climbing Miami Center
Fri 02:23:20 PM 26.2564 -82.3669 297° West 202 232 17,200 1,200 Climbing Miami Center
Fri 02:24:20 PM 26.2833 -82.4261 297° West 202 232 18,200 1,000 Climbing Miami Center
Fri 02:25:20 PM 26.3064 -82.4806 295° West 207 238 19,200 1,050 Climbing Miami Center
Fri 02:26:20 PM 26.3333 -82.5397 297° West 207 238 20,300 1,050 Climbing Miami Center
Fri 02:27:20 PM 26.3564 -82.5917 296° West 207 238 21,300 1,000 Climbing Miami Center
Fri 02:28:20 PM 26.3792 -82.6461 295° West 201 231 22,300 1,000 Climbing Miami Center
Fri 02:29:20 PM 26.4019 -82.7006 295° West 201 231 23,300 950 Climbing Miami Center
Fri 02:30:20 PM 26.4269 -82.7528 298° West 196 226 24,200 850 Climbing Miami Center
Fri 02:31:20 PM 26.4500 -82.8050 296° West 196 226 25,000 800 Climbing Miami Center
Fri 02:32:20 PM 26.4731 -82.8547 297° West 191 220 25,800 500 Climbing Miami Center
Fri 02:33:20 PM 26.4958 -82.9092 295° West 191 220 26,000 100 Climbing Miami Center
Fri 02:34:20 PM 26.5264 -82.9758 297° West 210 242 26,000  Level Miami Center
Fri 02:35:20 PM 26.5547 -83.0444 295° West 233 268 26,000  Level Miami Center
Fri 02:36:20 PM 26.5892 -83.1183 298° West 251 289 26,000  Level Miami Center
Fri 02:37:20 PM 26.6236 -83.1922 298° West 261 300 26,000  Level Miami Center
Fri 02:38:20 PM 26.6556 -83.2681 295° West 261 300 26,000  Level Miami Center
Fri 02:39:20 PM 26.6878 -83.3419 296° West 261 300 26,000  Level Miami Center
Fri 02:40:20 PM 26.7200 -83.4156 296° West 261 300 26,000  Level Miami Center
Fri 02:41:20 PM 26.7500 -83.4894 294° West 266 306 26,000  Level Miami Center
Fri 02:42:20 PM 26.7842 -83.5633 297° West 266 306 26,000  Level Miami Center
Fri 02:43:20 PM 26.8181 -83.6419 296° West 259 298 26,000  Level Miami Center
Fri 02:44:20 PM 26.8481 -83.7158 294° West 264 304 26,000  Level Miami Center
Fri 02:45:20 PM 26.8842 -83.7900 299° West 264 304 26,000  Level Miami Center
Fri 02:46:20 PM 26.9161 -83.8642 296° West 264 304 26,000  Level Miami Center
Fri 02:47:20 PM 26.9456 -83.9403 293° West 264 304 26,000  Level Miami Center
Fri 02:48:20 PM 26.9794 -84.0147 297° West 259 298 26,000  Level Miami Center
Fri 02:49:20 PM 27.0092 -84.0886 294° West 265 305 26,000  Level Miami Center
Fri 02:50:20 PM 27.0411 -84.1606 297° West 260 299 26,000  Level Miami Center
Fri 02:51:20 PM 27.0728 -84.2347 296° West 265 305 26,000  Level Miami Center
Fri 02:52:20 PM 27.1022 -84.3089 294° West 260 299 26,000  Level Miami Center
Fri 02:53:20 PM 27.1319 -84.3806 295° West 265 305 26,000  Level Miami Center
Fri 02:54:20 PM 27.1678 -84.4528 299° West 260 299 26,000  Level Miami Center
Fri 02:55:20 PM 27.1994 -84.5272 296° West 265 305 26,000  Level Miami Center
Fri 02:56:20 PM 27.2267 -84.5989 293° West 259 298 26,000  Level Miami Center
Fri 02:57:20 PM 27.2583 -84.6711 296° West 259 298 26,000  Level Miami Center
Fri 02:58:20 PM 27.2897 -84.7456 295° West 259 298 26,000  Level Miami Center
Fri 02:59:20 PM 27.3211 -84.8200 295° West 259 298 26,000  Level Miami Center
Fri 03:00:20 PM 27.3506 -84.8897 295° West 264 304 26,000  Level Miami Center
Fri 03:01:20 PM 27.3819 -84.9644 295° West 259 298 26,000  Level Miami Center
Fri 03:02:20 PM 27.4153 -85.0367 297° West 259 298 26,000  Level Miami Center
Fri 03:03:51 PM 27.4606 -85.1511 294° West 264 304 26,000  Level Jacksonville Center
Fri 03:04:51 PM 27.4906 -85.2197 296° West 258 297 26,000  Level Jacksonville Center
Fri 03:05:51 PM 27.5203 -85.3044 292° West 268 308 26,000  Level Jacksonville Center
Fri 03:06:51 PM 27.5525 -85.3708 299° West 273 314 26,000  Level Jacksonville Center
Fri 03:07:51 PM 27.5825 -85.4369 297° West 257 296 26,000  Level Jacksonville Center
Fri 03:08:51 PM 27.6142 -85.5175 294° West 257 296 26,000  Level Jacksonville Center
Fri 03:09:51 PM 27.6439 -85.5883 295° West 257 296 26,000  Level Jacksonville Center
Fri 03:10:51 PM 27.6717 -85.6594 294° West 252 290 26,000  Level Jacksonville Center
Fri 03:11:51 PM 27.7014 -85.7331 295° West 253 291 26,000  Level Jacksonville Center
Fri 03:12:51 PM 27.7311 -85.8042 295° West 259 298 26,000  Level Jacksonville Center
Fri 03:13:51 PM 27.7608 -85.8706 297° West 246 283 26,000  Level Jacksonville Center
Fri 03:14:51 PM 27.7903 -85.9464 294° West 246 283 26,000  Level Jacksonville Center
Fri 03:15:51 PM 27.8200 -86.0131 297° West 246 283 26,000  Level Jacksonville Center
Fri 03:16:51 PM 27.8494 -86.0914 293° West 256 295 26,000  Level Jacksonville Center
Fri 03:17:51 PM 27.8808 -86.1650 296° West 256 295 26,000  Level Jacksonville Center
Fri 03:18:51 PM 27.9083 -86.2317 295° West 256 295 26,000  Level Jacksonville Center
Fri 03:19:51 PM 27.9400 -86.3056 296° West 251 289 26,000  Level Jacksonville Center
Fri 03:20:51 PM 27.9694 -86.3747 296° West 251 289 26,000  Level Jacksonville Center
Fri 03:21:51 PM 27.9964 -86.4486 292° West 256 295 26,000  Level Jacksonville Center
Fri 03:22:51 PM 28.0317 -86.5319 296° West 265 305 26,000  Level Jacksonville Center
Fri 03:23:51 PM 28.0531 -86.5869 294° West 243 280 26,000  Level Jacksonville Center
Fri 03:24:51 PM 28.0842 -86.6633 295° West 246 283 26,000  Level Jacksonville Center
Fri 03:25:51 PM 28.1172 -86.7467 294° West 263 303 26,000  Level Jacksonville Center
Fri 03:26:51 PM 28.1425 -86.8089 295° West 248 285 26,000  Level Jacksonville Center
Fri 03:27:51 PM 28.1714 -86.8831 294° West 257 296 26,000  Level Jacksonville Center
Fri 03:28:51 PM 28.2006 -86.9572 294° West 251 289 26,000  Level Jacksonville Center
Fri 03:29:51 PM 28.2336 -87.0339 296° West 257 296 26,000  Level Jacksonville Center
Fri 03:30:51 PM 28.2583 -87.1033 292° West 251 289 26,000  Level Jacksonville Center
Fri 03:31:51 PM 28.2872 -87.1750 295° West 251 289 26,000  Level Jacksonville Center
Fri 03:33:13 PM 28.3225 -87.2594 295° West 251 289 26,000  Level Houston Center
Fri 03:34:15 PM 28.3578 -87.3458 295° West 252 290 26,000  Level Houston Center
Fri 03:35:17 PM 28.3853 -87.4186 293° West 251 289 26,000  Level Houston Center
Fri 03:36:20 PM 28.4144 -87.4908 295° West 252 290 26,000  Level Houston Center
Fri 03:37:22 PM 28.4419 -87.5622 294° West 249 287 26,000  Level Houston Center
Fri 03:38:24 PM 28.4708 -87.6353 294° West 252 290 26,000  Level Houston Center
Fri 03:39:26 PM 28.5044 -87.7208 294° West 250 288 26,000  Level Houston Center
Fri 03:40:28 PM 28.5331 -87.7942 294° West 253 291 26,000  Level Houston Center
Fri 03:41:30 PM 28.5603 -87.8647 294° West 247 284 26,000  Level Houston Center
Fri 03:42:32 PM 28.5886 -87.9375 294° West 252 290 26,000  Level Houston Center
Fri 03:43:34 PM 28.6194 -88.0164 294° West 250 288 26,000  Level Houston Center
Fri 03:44:37 PM 28.6469 -88.0875 294° West 248 285 26,000  Level Houston Center
Fri 03:45:39 PM 28.6744 -88.1572 294° West 249 287 26,000  Level Houston Center
Fri 03:46:41 PM 28.7147 -88.2219 305° West 251 289 26,000  Level Houston Center
Fri 03:47:43 PM 28.7653 -88.2994 307° West 256 295 26,000  Level Houston Center
Fri 03:48:45 PM 28.8069 -88.3642 306° West 254 292 26,000  Level Houston Center
Fri 03:49:47 PM 28.8483 -88.4292 306° West 255 293 26,000  Level Houston Center
Fri 03:50:49 PM 28.8911 -88.4933 307° West 254 292 26,000 -48 Level Houston Center
Fri 03:51:52 PM 28.9319 -88.5583 306° West 255 293 25,900 -576 Descending Houston Center
Fri 03:52:54 PM 28.9775 -88.6272 307° West 269 310 24,800 -1,113 Descending Houston Center
Fri 03:53:56 PM 29.0347 -88.7169 306° West 291 335 23,600 -1,065 Descending Houston Center
Fri 03:54:58 PM 29.0839 -88.7928 307° West 295 339 22,600 -968 Descending Houston Center
Fri 03:56:00 PM 29.1325 -88.8686 306° West 296 341 21,600 -968 Descending Houston Center
Fri 03:57:02 PM 29.1803 -88.9444 306° West 296 341 20,600 -968 Descending Houston Center
Fri 03:58:04 PM 29.2294 -89.0194 307° West 295 339 19,600 -1,065 Descending Houston Center
Fri 03:59:06 PM 29.2883 -89.1136 306° West 302 348 18,400 -1,056 Descending Houston Center
Fri 04:00:09 PM 29.3375 -89.1933 305° West 305 351 17,400 -960 Descending Houston Center
Fri 04:01:11 PM 29.3867 -89.2689 307° West 300 345 16,400 -968 Descending Houston Center
Fri 04:02:13 PM 29.4333 -89.3425 306° West 292 336 15,400 -968 Descending Houston Center
Fri 04:03:15 PM 29.4797 -89.4156 306° West 286 329 14,400 -968 Descending Houston Center
Fri 04:04:17 PM 29.5264 -89.4894 306° West 285 328 13,400 -1,012 Descending Houston Center
Fri 04:04:38 PM 29.5483 -89.5228 307° West 283 326 13,000 -1,143 Descending Houston Center
Fri 04:05:20 PM 29.5817 -89.5786 304° West 283 326 12,200 -990 Descending Houston Center
Fri 04:06:15 PM 29.6217 -89.6414 306° West 282 325 11,400 -984 Descending Houston Center
Fri 04:06:21 PM 29.6275 -89.6489 312° West 281 323 11,200 -490 Descending Houston Center
Fri 04:07:04 PM 29.6569 -89.6947 306° West 253 291 11,000 -476 Descending Houston Center
Fri 04:07:24 PM 29.6675 -89.7131 304° West 261 300 10,700 -1,443 Descending Houston Center
Fri 04:08:23 PM 29.7078 -89.7764 306° West 237 273 9,100 -1,548 Descending Houston Center
Fri 04:08:26 PM 29.7064 -89.7736 120° Southeast 241 277 9,100 -1,385 Level Houston Center
Fri 04:09:28 PM 29.7458 -89.8364 306° West 240 276 7,600 -1,576 Descending Houston Center
Fri 04:10:24 PM 29.7994 -89.8872 321° Northwest 222 255 6,000 -1,452 Descending Houston Center
Fri 04:10:30 PM 29.7939 -89.8822 142° Southeast 225 259 6,100 -1,418 Climbing Houston Center
Fri 04:11:19 PM 29.8381 -89.9239 321° Northwest 216 249 4,700 -1,742 Descending Houston Center
Fri 04:11:32 PM 29.8514 -89.9367 320° Northwest 223 257 4,300 -1,574 Descending Houston Center
Fri 04:12:20 PM 29.8900 -89.9719 322° Northwest 226 260 3,100 -1,452 Descending Houston Center
Fri 04:12:34 PM 29.8994 -89.9822 317° Northwest 223 257 2,800 -1,375 Descending Houston Center
Fri 04:13:08 PM 29.9264 -90.0064 322° Northwest 219 252 2,000 -1,161 Descending Houston Center
Fri 04:13:36 PM 29.9456 -90.0233 323° Northwest 218 251 1,600 -684 Descending Houston Center
Fri 04:14:27 PM 29.9794 -90.0306 350° North 131 151 1,100 -581 Descending Houston Center
Fri 04:14:38 PM 29.9844 -90.0300 North 168 193 1,000 -655 Descending Houston Center
Fri 04:15:22 PM 30.0131 -90.0292 North 120 138 500 -667 Descending Houston Center
Fri 04:15:41 PM 30.0194 -90.0300 354° North 141 162 300 -222 Descending Houston Center
Fri 04:16:43 PM 30.0517 -90.0308 359° North 137 158 200 -97 Descending Houston Center
Fri 04:18:00 PM 30.0424 -90.0283 180° South  Level Estimated
Fri 04:25:00 PM 30.0424 -90.0283 180° South  Level Estimated

Login

Don't have an account? Register now (free) for customized features, flight alerts, and more!